createdAt,value
2023-04-19T00:00:19.221Z,80.32
2023-04-19T00:02:47.697Z,81.71
2023-04-19T00:05:14.288Z,81.62
2023-04-19T00:07:40.946Z,81.21
2023-04-19T00:10:09.888Z,80.79
2023-04-19T00:12:36.418Z,81.60
2023-04-19T00:15:02.982Z,81.15
2023-04-19T00:17:29.425Z,81.25
2023-04-19T00:19:55.930Z,80.82
2023-04-19T00:22:22.439Z,81.23
2023-04-19T00:24:50.707Z,80.82
2023-04-19T00:27:21.023Z,80.36
2023-04-19T00:29:47.420Z,79.52
2023-04-19T00:32:13.884Z,80.27
2023-04-19T00:34:40.332Z,80.13
2023-04-19T00:37:10.013Z,78.61
2023-04-19T00:39:36.573Z,79.88
2023-04-19T00:42:05.030Z,80.73
2023-04-19T00:44:32.778Z,80.45
2023-04-19T00:47:00.047Z,80.19
2023-04-19T00:49:27.351Z,78.71
2023-04-19T00:51:54.052Z,79.98
2023-04-19T00:54:20.839Z,79.20
2023-04-19T00:56:49.175Z,77.78
2023-04-19T00:59:17.434Z,79.27
2023-04-19T01:01:49.380Z,79.32
2023-04-19T01:04:18.941Z,79.22
2023-04-19T01:06:46.531Z,76.68
2023-04-19T01:09:12.942Z,79.23
2023-04-19T01:11:43.210Z,79.47
2023-04-19T01:14:10.151Z,78.97
2023-04-19T01:16:36.545Z,80.64
2023-04-19T01:19:04.348Z,77.86
2023-04-19T01:21:30.832Z,79.19
2023-04-19T01:23:58.641Z,79.07
2023-04-19T01:26:25.169Z,79.84
2023-04-19T01:28:51.624Z,79.99
2023-04-19T01:31:18.068Z,79.84
2023-04-19T01:33:47.414Z,79.11
2023-04-19T01:36:13.963Z,79.82
2023-04-19T01:38:41.394Z,80.18
2023-04-19T01:41:10.747Z,80.68
2023-04-19T01:43:37.222Z,80.69
2023-04-19T01:46:03.698Z,80.40
2023-04-19T01:48:30.151Z,79.59
2023-04-19T01:50:56.683Z,81.30
2023-04-19T01:53:23.122Z,80.95
2023-04-19T01:55:49.718Z,81.26
2023-04-19T01:58:17.497Z,81.50
2023-04-19T02:00:44.808Z,81.40
2023-04-19T02:03:11.490Z,80.83
2023-04-19T02:05:39.143Z,81.52
2023-04-19T02:08:05.814Z,80.93
2023-04-19T02:10:32.265Z,80.69
2023-04-19T02:12:58.768Z,81.58
2023-04-19T02:15:26.632Z,82.18
2023-04-19T02:17:53.232Z,82.19
2023-04-19T02:20:19.892Z,82.30
2023-04-19T02:22:49.857Z,81.91
2023-04-19T02:25:22.255Z,81.86
2023-04-19T02:27:50.119Z,82.22
2023-04-19T02:30:19.527Z,81.75
2023-04-19T02:32:49.017Z,82.76
2023-04-19T02:35:15.583Z,82.63
2023-04-19T02:37:42.001Z,82.26
2023-04-19T02:40:09.123Z,82.62
2023-04-19T02:42:35.536Z,82.67
2023-04-19T02:45:02.004Z,83.11
2023-04-19T02:47:28.554Z,82.78
2023-04-19T02:56:30.346Z,82.96
2023-04-19T02:59:00.774Z,83.66
2023-04-19T03:01:27.565Z,83.50
2023-04-19T03:03:54.199Z,83.22
2023-04-19T03:06:20.785Z,83.19
2023-04-19T03:08:47.203Z,84.32
2023-04-19T03:11:16.155Z,83.65
2023-04-19T03:13:43.902Z,82.24
2023-04-19T03:16:12.206Z,83.49
2023-04-19T03:18:39.028Z,83.01
2023-04-19T03:21:06.063Z,82.90
2023-04-19T03:23:40.932Z,82.76
2023-04-19T03:26:07.382Z,83.44
2023-04-19T03:28:38.649Z,81.95
2023-04-19T03:31:30.222Z,82.25
2023-04-19T03:33:58.045Z,81.99
2023-04-19T03:36:29.454Z,83.11
2023-04-19T03:38:56.569Z,84.14
2023-04-19T03:41:25.537Z,83.31
2023-04-19T03:44:08.147Z,83.26
2023-04-19T03:46:36.580Z,82.96
2023-04-19T03:49:03.336Z,80.38
2023-04-19T03:51:30.060Z,82.68
2023-04-19T03:53:56.439Z,82.64
2023-04-19T03:56:22.998Z,80.54
2023-04-19T03:58:50.873Z,81.85
2023-04-19T04:01:18.401Z,81.41
2023-04-19T04:03:46.829Z,81.65
2023-04-19T04:06:13.500Z,80.81
2023-04-19T04:08:40.087Z,82.14
2023-04-19T04:11:06.534Z,80.91
2023-04-19T04:13:33.015Z,81.61
2023-04-19T04:16:16.133Z,81.19
2023-04-19T04:18:42.893Z,80.38
2023-04-19T04:21:14.141Z,79.97
2023-04-19T04:23:43.040Z,79.30
2023-04-19T04:26:16.437Z,80.43
2023-04-19T04:28:53.109Z,78.97
2023-04-19T04:31:20.147Z,79.99
2023-04-19T04:33:47.533Z,78.62
2023-04-19T04:36:20.010Z,79.46
2023-04-19T04:38:49.439Z,76.92
2023-04-19T04:41:20.836Z,77.35
2023-04-19T04:44:04.607Z,78.26
2023-04-19T04:46:37.515Z,77.89
2023-04-19T04:49:04.082Z,76.66
2023-04-19T04:51:31.843Z,76.59
2023-04-19T04:53:59.199Z,76.74
2023-04-19T04:56:25.707Z,74.93
2023-04-19T04:58:52.274Z,77.54
2023-04-19T05:01:26.982Z,76.14
2023-04-19T05:03:53.940Z,74.58
2023-04-19T05:06:22.200Z,74.21
2023-04-19T05:08:50.055Z,74.87
2023-04-19T05:11:27.208Z,74.43
2023-04-19T05:13:53.986Z,72.98
2023-04-19T05:16:21.056Z,74.20
2023-04-19T05:18:48.947Z,73.43
2023-04-19T05:21:18.745Z,72.97
2023-04-19T05:23:47.456Z,72.45
2023-04-19T05:26:17.667Z,72.12
2023-04-19T05:28:47.076Z,70.16
2023-04-19T05:31:21.282Z,69.66
2023-04-19T05:34:04.753Z,65.87
2023-04-19T05:36:31.741Z,67.61
2023-04-19T05:38:58.118Z,66.46
2023-04-19T05:41:27.983Z,65.75
2023-04-19T05:43:54.426Z,63.01
2023-04-19T05:46:26.071Z,65.80
2023-04-19T05:48:55.899Z,66.15
2023-04-19T05:51:41.214Z,67.33
2023-04-19T05:54:11.962Z,65.29
2023-04-19T05:56:44.646Z,64.26
2023-04-19T05:59:11.233Z,64.75
2023-04-19T06:01:37.853Z,62.06
2023-04-19T06:04:04.765Z,64.08
2023-04-19T06:06:31.265Z,61.63
2023-04-19T06:08:57.682Z,62.43
2023-04-19T06:11:34.616Z,63.81
2023-04-19T06:14:08.365Z,61.87
2023-04-19T06:16:34.814Z,61.21
2023-04-19T06:19:01.253Z,61.17
2023-04-19T06:21:30.252Z,61.28
2023-04-19T06:23:56.672Z,61.48
2023-04-19T06:26:23.103Z,58.08
2023-04-19T06:28:49.514Z,55.91
2023-04-19T06:31:17.227Z,51.85
2023-04-19T06:33:43.629Z,51.09
2023-04-19T06:36:43.212Z,53.74
2023-04-19T06:39:12.470Z,50.66
2023-04-19T06:41:38.872Z,50.97
2023-04-19T06:44:05.804Z,50.41
2023-04-19T06:46:33.627Z,49.51
2023-04-19T06:49:04.218Z,49.64
2023-04-19T06:51:30.773Z,51.37
2023-04-19T06:53:59.937Z,49.45
2023-04-19T06:56:43.127Z,53.35
2023-04-19T06:59:09.525Z,51.88
2023-04-19T07:01:38.010Z,50.12
2023-04-19T07:04:04.826Z,49.65
2023-04-19T07:06:31.507Z,51.20
2023-04-19T07:09:01.005Z,50.49
2023-04-19T07:11:27.384Z,49.43
2023-04-19T07:13:53.789Z,48.38
2023-04-19T07:16:25.801Z,48.00
2023-04-19T07:18:53.829Z,49.82
2023-04-19T07:21:20.350Z,47.54
2023-04-19T07:23:47.431Z,50.37
2023-04-19T07:26:15.890Z,48.76
2023-04-19T07:28:44.353Z,49.60
2023-04-19T07:31:33.489Z,50.47
2023-04-19T07:34:04.151Z,49.75
2023-04-19T07:36:30.558Z,49.20
2023-04-19T07:38:57.029Z,50.99
2023-04-19T07:41:23.404Z,49.43
2023-04-19T07:43:49.783Z,50.04
2023-04-19T07:46:16.375Z,50.16
2023-04-19T07:48:42.832Z,50.09
2023-04-19T07:51:12.370Z,48.64
2023-04-19T07:53:39.856Z,49.20
2023-04-19T07:56:07.576Z,50.15
2023-04-19T07:58:33.965Z,47.16
2023-04-19T08:01:00.559Z,49.55
2023-04-19T08:03:27.250Z,49.56
2023-04-19T08:05:54.016Z,49.20
2023-04-19T08:08:21.829Z,49.95
2023-04-19T08:10:48.223Z,49.19
2023-04-19T08:13:14.603Z,49.91
2023-04-19T08:18:10.348Z,49.69
2023-04-19T08:20:36.946Z,49.65
2023-04-19T08:23:10.957Z,47.67
2023-04-19T08:25:48.126Z,48.52
2023-04-19T08:28:14.634Z,47.64
2023-04-19T08:30:41.095Z,49.03
2023-04-19T08:33:07.722Z,47.46
2023-04-19T08:35:34.700Z,47.71
2023-04-19T08:38:02.577Z,48.34
2023-04-19T08:40:30.386Z,45.14
2023-04-19T08:43:05.594Z,44.10
2023-04-19T08:45:33.154Z,46.29
2023-04-19T08:48:02.369Z,47.35
2023-04-19T08:53:08.457Z,46.56
2023-04-19T08:55:54.824Z,46.41
2023-04-19T08:58:40.698Z,46.09
2023-04-19T09:01:22.831Z,44.04
2023-04-19T09:04:07.185Z,44.50
2023-04-19T09:06:43.653Z,43.97
2023-04-19T09:11:48.798Z,42.73
2023-04-19T09:14:18.285Z,40.35
2023-04-19T09:16:45.513Z,41.69
2023-04-19T09:19:23.035Z,44.03
2023-04-19T09:21:51.627Z,42.71
2023-04-19T09:24:18.044Z,44.38
2023-04-19T09:26:54.409Z,42.89
2023-04-19T09:29:22.205Z,42.35
2023-04-19T09:31:57.116Z,44.03
2023-04-19T09:34:23.594Z,44.80
2023-04-19T09:36:54.633Z,43.00
2023-04-19T09:39:31.503Z,43.99
2023-04-19T09:41:58.041Z,44.21
2023-04-19T09:46:55.256Z,42.18
2023-04-19T09:49:36.833Z,43.28
2023-04-19T09:52:04.991Z,43.08
2023-04-19T09:54:32.248Z,41.84
2023-04-19T09:57:00.858Z,38.59
2023-04-19T09:59:29.260Z,38.04
2023-04-19T10:01:56.169Z,39.38
2023-04-19T10:04:33.390Z,39.74
2023-04-19T10:09:53.011Z,36.77
2023-04-19T10:12:51.729Z,39.61
2023-04-19T10:15:14.340Z,41.54
2023-04-19T10:17:41.615Z,41.45
2023-04-19T10:20:13.275Z,41.58
2023-04-19T10:22:40.278Z,42.14
2023-04-19T10:25:11.793Z,39.69
2023-04-19T10:27:38.497Z,40.30
2023-04-19T10:30:07.596Z,39.82
2023-04-19T10:32:40.202Z,40.88
2023-04-19T10:35:12.005Z,41.93
2023-04-19T10:37:40.752Z,40.88
2023-04-19T10:40:08.312Z,41.03
2023-04-19T10:43:12.208Z,39.31
2023-04-19T10:45:39.257Z,40.68
2023-04-19T10:48:27.143Z,41.62
2023-04-19T10:51:00.166Z,42.25
2023-04-19T10:53:50.084Z,39.52
2023-04-19T10:56:18.289Z,38.88
2023-04-19T10:59:12.609Z,39.57
2023-04-19T11:01:40.778Z,40.95
2023-04-19T11:04:10.519Z,38.27
2023-04-19T11:06:38.248Z,38.97
2023-04-19T11:09:04.784Z,39.73
2023-04-19T11:11:33.529Z,42.31
2023-04-19T11:14:00.666Z,41.94
2023-04-19T11:16:38.332Z,42.87
2023-04-19T11:19:16.379Z,43.07
2023-04-19T11:21:43.159Z,44.02
2023-04-19T11:24:10.574Z,44.47
2023-04-19T11:26:37.140Z,43.47
2023-04-19T11:29:03.984Z,42.94
2023-04-19T11:31:32.053Z,42.35
2023-04-19T11:33:59.057Z,43.37
2023-04-19T11:36:26.849Z,44.68
2023-04-19T11:38:54.022Z,44.15
2023-04-19T11:41:20.557Z,45.29
2023-04-19T11:43:47.104Z,44.90
2023-04-19T11:46:14.254Z,43.50
2023-04-19T11:48:51.192Z,43.15
2023-04-19T11:51:17.636Z,42.99
2023-04-19T11:53:45.737Z,43.07
2023-04-19T11:56:12.204Z,43.31
2023-04-19T11:58:40.589Z,44.49
2023-04-19T12:01:08.436Z,46.06
2023-04-19T12:03:40.086Z,46.93
2023-04-19T12:06:10.813Z,46.80
2023-04-19T12:08:38.359Z,45.87
2023-04-19T12:11:06.689Z,46.02
2023-04-19T12:13:34.159Z,45.26
2023-04-19T12:16:00.889Z,45.10
2023-04-19T12:18:27.358Z,43.24
2023-04-19T12:20:54.070Z,43.94
2023-04-19T12:23:21.194Z,43.23
2023-04-19T12:25:48.847Z,44.82
2023-04-19T12:28:16.646Z,46.49
2023-04-19T12:30:43.242Z,46.80
2023-04-19T12:33:09.808Z,48.14
2023-04-19T12:35:36.269Z,46.26
2023-04-19T12:38:04.534Z,45.25
2023-04-19T12:40:31.013Z,45.01
2023-04-19T12:42:57.599Z,47.58
2023-04-19T12:45:25.617Z,52.45
2023-04-19T12:47:52.112Z,56.74
2023-04-19T12:50:18.683Z,57.84
2023-04-19T12:52:45.329Z,57.34
2023-04-19T12:55:11.789Z,56.53
2023-04-19T12:57:38.153Z,58.08
2023-04-19T13:00:06.504Z,56.31
2023-04-19T13:02:37.938Z,54.90
2023-04-19T13:05:04.933Z,53.10
2023-04-19T13:07:31.505Z,53.22
2023-04-19T13:09:57.913Z,51.94
2023-04-19T13:12:24.427Z,50.30
2023-04-19T13:14:51.140Z,48.80
2023-04-19T13:17:17.787Z,44.12
2023-04-19T13:19:45.616Z,43.93
2023-04-19T13:22:12.060Z,44.65
2023-04-19T13:24:38.490Z,43.10
2023-04-19T13:27:07.301Z,41.73
2023-04-19T13:29:35.124Z,43.29
2023-04-19T13:32:01.641Z,44.24
2023-04-19T13:34:28.445Z,41.49
2023-04-19T13:36:56.830Z,42.22
2023-04-19T13:39:23.352Z,41.57
2023-04-19T13:41:50.862Z,42.16
2023-04-19T13:44:20.017Z,41.03
2023-04-19T13:46:46.511Z,40.48
2023-04-19T13:49:13.030Z,38.84
2023-04-19T13:51:49.688Z,41.70
2023-04-19T13:54:19.837Z,40.29
2023-04-19T13:56:47.426Z,41.84
2023-04-19T13:59:15.317Z,38.64
2023-04-19T14:01:41.853Z,42.94
2023-04-19T14:04:08.527Z,43.49
2023-04-19T14:06:35.137Z,45.12
2023-04-19T14:09:01.581Z,44.93
2023-04-19T14:11:30.166Z,44.33
2023-04-19T14:13:56.627Z,45.59
2023-04-19T14:16:23.065Z,47.23
2023-04-19T14:18:49.514Z,45.93
2023-04-19T14:21:16.162Z,42.28
2023-04-19T14:23:42.545Z,43.67
2023-04-19T14:26:08.977Z,42.44
2023-04-19T14:28:36.724Z,42.08
2023-04-19T14:31:03.177Z,44.00
2023-04-19T14:33:29.692Z,43.27
2023-04-19T14:35:56.198Z,44.80
2023-04-19T14:38:22.655Z,44.39
2023-04-19T14:40:49.102Z,43.67
2023-04-19T14:43:15.612Z,41.35
2023-04-19T14:45:43.353Z,44.17
2023-04-19T14:48:09.917Z,44.16
2023-04-19T14:50:36.453Z,46.37
2023-04-19T14:53:02.947Z,45.73
2023-04-19T14:55:29.402Z,46.22
2023-04-19T14:57:55.822Z,45.60
2023-04-19T15:00:22.318Z,47.59
2023-04-19T15:02:52.601Z,48.55
2023-04-19T15:05:22.489Z,54.36
2023-04-19T15:07:49.301Z,63.12
2023-04-19T15:10:16.224Z,67.60
2023-04-19T15:13:57.700Z,68.17
2023-04-19T15:16:04.821Z,71.10
2023-04-19T15:21:24.344Z,71.06
2023-04-19T15:23:53.605Z,69.95
2023-04-19T15:26:22.086Z,72.86
2023-04-19T15:28:57.840Z,73.81
2023-04-19T15:31:24.904Z,72.55
2023-04-19T15:33:52.722Z,72.45
2023-04-19T15:36:22.227Z,74.26
2023-04-19T15:38:50.930Z,73.35
2023-04-19T15:41:19.508Z,71.71
2023-04-19T15:43:48.798Z,73.20
2023-04-19T15:46:20.258Z,73.27
2023-04-19T15:48:53.422Z,73.32
2023-04-19T15:51:24.030Z,70.03
2023-04-19T15:53:52.335Z,70.26
2023-04-19T15:56:26.056Z,70.77
2023-04-19T15:58:52.650Z,72.80
2023-04-19T16:01:21.112Z,69.59
2023-04-19T16:03:47.952Z,70.03
2023-04-19T16:06:23.682Z,66.72
2023-04-19T16:08:50.557Z,68.15
2023-04-19T16:11:17.153Z,65.57
2023-04-19T16:13:43.636Z,65.98
2023-04-19T16:16:10.214Z,63.71
2023-04-19T16:18:36.680Z,65.83
2023-04-19T16:21:07.424Z,61.37
2023-04-19T16:23:35.124Z,66.28
2023-04-19T16:26:01.873Z,65.30
2023-04-19T16:28:31.519Z,66.93
2023-04-19T16:30:58.113Z,65.83
2023-04-19T16:33:27.422Z,63.56
2023-04-19T16:35:54.609Z,61.89
2023-04-19T16:38:21.203Z,62.29
2023-04-19T16:40:51.734Z,62.55
2023-04-19T16:43:24.580Z,64.52
2023-04-19T16:45:55.476Z,64.27
2023-04-19T16:48:22.220Z,62.00
2023-04-19T16:50:51.071Z,64.20
2023-04-19T16:53:19.125Z,64.20
2023-04-19T16:55:45.737Z,62.76
2023-04-19T16:58:14.313Z,65.22
2023-04-19T17:00:43.535Z,64.71
2023-04-19T17:03:10.579Z,62.41
2023-04-19T17:05:37.699Z,65.13
2023-04-19T17:08:04.807Z,63.29
2023-04-19T17:10:31.503Z,64.30
2023-04-19T17:12:58.109Z,62.14
2023-04-19T17:15:26.331Z,62.48
2023-04-19T17:17:53.106Z,63.01
2023-04-19T17:20:21.886Z,63.74
2023-04-19T17:22:49.669Z,64.63
2023-04-19T17:25:16.395Z,64.66
2023-04-19T17:27:43.129Z,63.59
2023-04-19T17:30:10.102Z,64.65
2023-04-19T17:32:38.166Z,67.55
2023-04-19T17:35:05.297Z,66.11
2023-04-19T17:37:31.793Z,66.84
2023-04-19T17:39:58.453Z,67.07
2023-04-19T17:42:25.063Z,65.72
2023-04-19T17:44:51.752Z,66.93
2023-04-19T17:47:18.969Z,64.17
2023-04-19T17:49:47.914Z,62.77
2023-04-19T17:52:16.019Z,65.10
2023-04-19T17:54:45.340Z,65.58
2023-04-19T17:57:11.873Z,61.85
2023-04-19T17:59:38.468Z,64.75
2023-04-19T18:02:05.144Z,65.28
2023-04-19T18:04:34.621Z,63.31
2023-04-19T18:07:02.482Z,62.31
2023-04-19T18:09:36.511Z,62.39
2023-04-19T18:12:03.162Z,64.79
2023-04-19T18:14:29.652Z,65.45
2023-04-19T18:16:58.415Z,66.49
2023-04-19T18:19:26.219Z,64.36
2023-04-19T18:21:52.873Z,66.45
2023-04-19T18:24:20.731Z,65.85
2023-04-19T18:26:48.395Z,67.18
2023-04-19T18:29:22.376Z,67.11
2023-04-19T18:31:50.763Z,64.88
2023-04-19T18:34:17.327Z,69.33
2023-04-19T18:36:43.793Z,68.47
2023-04-19T18:39:11.776Z,71.24
2023-04-19T18:41:41.400Z,72.19
2023-04-19T18:44:29.971Z,72.99
2023-04-19T18:47:01.136Z,74.63
2023-04-19T18:50:03.458Z,74.77
2023-04-19T18:52:31.623Z,74.51
2023-04-19T18:54:59.661Z,74.72
2023-04-19T18:57:30.584Z,75.95
2023-04-19T19:00:01.451Z,75.44
2023-04-19T19:02:28.405Z,76.70
2023-04-19T19:04:57.838Z,76.96
2023-04-19T19:07:36.440Z,77.02
2023-04-19T19:10:18.665Z,77.65
2023-04-19T19:12:48.565Z,78.17
2023-04-19T19:15:23.430Z,77.54
2023-04-19T19:17:51.692Z,79.50
2023-04-19T19:20:20.276Z,79.66
2023-04-19T19:22:51.423Z,79.17
2023-04-19T19:25:24.361Z,80.00
2023-04-19T19:28:06.221Z,81.53
2023-04-19T19:30:34.597Z,80.75
2023-04-19T19:33:02.023Z,81.77
2023-04-19T19:35:28.608Z,82.34
2023-04-19T19:37:55.184Z,81.97
2023-04-19T19:40:24.636Z,82.48
2023-04-19T19:42:52.438Z,82.44
2023-04-19T19:45:28.510Z,82.66
2023-04-19T19:47:55.126Z,82.93
2023-04-19T19:51:02.104Z,82.11
2023-04-19T19:53:11.821Z,83.32
2023-04-19T19:55:38.368Z,83.78
2023-04-19T20:03:06.725Z,83.91
2023-04-19T20:05:33.837Z,84.69
2023-04-19T20:08:19.685Z,85.34
2023-04-19T20:10:50.940Z,85.21
2023-04-19T20:13:20.590Z,85.39
2023-04-19T20:16:06.405Z,83.97
2023-04-19T20:18:35.518Z,83.71
2023-04-19T20:21:02.092Z,83.68
2023-04-19T20:23:37.753Z,84.36
2023-04-19T20:26:07.356Z,85.25
2023-04-19T20:28:38.643Z,84.28
2023-04-19T20:31:05.246Z,85.22
2023-04-19T20:33:34.038Z,85.81
2023-04-19T20:36:00.810Z,85.47
2023-04-19T20:38:27.274Z,85.83
2023-04-19T20:40:53.855Z,86.05
2023-04-19T20:43:22.331Z,85.61
2023-04-19T20:45:50.206Z,85.81
2023-04-19T20:48:31.816Z,85.81
2023-04-19T20:51:01.285Z,86.63
2023-04-19T20:53:27.815Z,86.83
2023-04-19T20:55:54.424Z,86.77
2023-04-19T20:58:20.944Z,86.00
2023-04-19T21:00:47.593Z,85.31
2023-04-19T21:03:22.903Z,85.70
2023-04-19T21:05:51.572Z,86.23
2023-04-19T21:08:20.473Z,85.73
2023-04-19T21:10:52.942Z,86.76
2023-04-19T21:13:21.512Z,86.41
2023-04-19T21:15:52.869Z,88.01
2023-04-19T21:18:23.981Z,87.27
2023-04-19T21:20:53.520Z,88.37
2023-04-19T21:23:23.470Z,88.68
2023-04-19T21:25:52.305Z,88.64
2023-04-19T21:28:24.753Z,89.37
2023-04-19T21:30:56.259Z,89.02
2023-04-19T21:33:27.329Z,88.98
2023-04-19T21:35:53.930Z,88.52
2023-04-19T21:38:23.484Z,90.54
2023-04-19T21:40:54.690Z,90.27
2023-04-19T21:43:27.131Z,90.60
2023-04-19T21:45:53.905Z,90.26
2023-04-19T21:48:23.335Z,91.01
2023-04-19T21:50:53.917Z,89.70
2023-04-19T21:53:23.544Z,90.24
2023-04-19T21:55:52.219Z,90.36
2023-04-19T21:58:21.537Z,90.63
2023-04-19T22:00:56.966Z,89.64
2023-04-19T22:03:23.968Z,90.46
2023-04-19T22:05:57.609Z,91.72
2023-04-19T22:08:30.864Z,91.49
2023-04-19T22:10:58.685Z,90.58
2023-04-19T22:13:25.250Z,90.22
2023-04-19T22:15:54.551Z,90.83
2023-04-19T22:18:21.057Z,91.53
2023-04-19T22:20:57.092Z,90.86
2023-04-19T22:23:23.574Z,91.26
2023-04-19T22:25:53.188Z,91.09
2023-04-19T22:28:22.520Z,90.92
2023-04-19T22:30:52.124Z,90.84
2023-04-19T22:33:26.840Z,91.81
2023-04-19T22:35:54.721Z,92.64
2023-04-19T22:38:23.822Z,92.10
2023-04-19T22:40:54.899Z,90.97
2023-04-19T22:43:21.842Z,91.00
2023-04-19T22:45:51.292Z,90.74
2023-04-19T22:48:32.024Z,90.27
2023-04-19T22:51:03.078Z,91.82
2023-04-19T22:53:29.744Z,91.92
2023-04-19T22:55:56.250Z,91.67
2023-04-19T22:58:22.906Z,92.41
2023-04-19T23:00:51.365Z,91.57
2023-04-19T23:03:19.856Z,91.40
2023-04-19T23:05:46.511Z,91.28
2023-04-19T23:08:14.391Z,92.26
2023-04-19T23:10:43.141Z,91.22
2023-04-19T23:13:09.626Z,92.58
2023-04-19T23:15:38.119Z,92.46
2023-04-19T23:18:04.826Z,91.57
2023-04-19T23:20:31.479Z,92.52
2023-04-19T23:22:57.974Z,92.49
2023-04-19T23:25:25.872Z,92.84
2023-04-19T23:27:52.337Z,93.64
2023-04-19T23:30:21.721Z,92.33
2023-04-19T23:32:54.049Z,91.77
2023-04-19T23:35:22.602Z,92.58
2023-04-19T23:37:50.275Z,91.63
2023-04-19T23:40:16.962Z,91.81
2023-04-19T23:42:52.156Z,92.14
2023-04-19T23:45:18.721Z,91.97
2023-04-19T23:47:45.206Z,92.30
2023-04-19T23:50:11.827Z,91.60
2023-04-19T23:52:38.273Z,91.08
2023-04-19T23:55:05.488Z,91.13
2023-04-19T23:57:33.840Z,90.95
